Time;durP1;ratioP1;P1;durP2;ratioP2;P2;SDS_P1;SDS_P2;PMS_P1;PMS_P2;Temp;Humidity;BMP_temperature;BMP_pressure;BME280_temperature;BME280_humidity;BME280_pressure;Samples;Min_cycle;Max_cycle;Signal;HPM_P1;HPM_P2
2023/09/29 00:01:56;;;;;;;7.78;1.00;;;;;;;;;;5023938;28;20419;-75
2023/09/29 00:04:27;;;;;;;4.97;0.77;;;;;;;;;;5023803;28;20049;-74
2023/09/29 00:06:58;;;;;;;6.07;0.80;;;;;;;;;;5024577;28;20159;-75
2023/09/29 00:09:29;;;;;;;4.03;0.70;;;;;;;;;;5023673;28;20064;-73
2023/09/29 00:11:59;;;;;;;1.83;0.73;;;;;;;;;;5023203;28;20057;-74
2023/09/29 00:14:30;;;;;;;3.45;1.27;;;;;;;;;;5023870;28;20056;-73
2023/09/29 00:17:01;;;;;;;2.97;0.73;;;;;;;;;;5023206;28;20588;-78
2023/09/29 00:19:33;;;;;;;6.55;2.58;;;;;;;;;;5023969;28;20374;-73
2023/09/29 00:22:04;;;;;;;5.40;1.00;;;;;;;;;;5022125;28;20408;-73
2023/09/29 00:24:34;;;;;;;7.00;0.93;;;;;;;;;;5023489;28;20050;-73
2023/09/29 00:27:04;;;;;;;4.60;1.30;;;;;;;;;;5023345;28;20060;-74
2023/09/29 00:29:36;;;;;;;6.55;1.20;;;;;;;;;;5023615;28;20049;-74
2023/09/29 00:32:06;;;;;;;7.75;1.13;;;;;;;;;;5021580;28;20057;-73
2023/09/29 00:34:36;;;;;;;7.70;1.05;;;;;;;;;;5020756;28;20484;-73
2023/09/29 00:37:06;;;;;;;8.05;1.42;;;;;;;;;;5022775;28;20048;-77
2023/09/29 00:39:38;;;;;;;5.25;1.77;;;;;;;;;;5022942;28;20517;-73
2023/09/29 00:42:09;;;;;;;3.08;1.23;;;;;;;;;;5022103;28;20049;-74
2023/09/29 00:44:39;;;;;;;5.80;1.73;;;;;;;;;;5022871;28;20056;-74
2023/09/29 00:47:11;;;;;;;7.05;1.38;;;;;;;;;;5021933;28;20504;-74
2023/09/29 00:49:42;;;;;;;4.95;1.25;;;;;;;;;;5023133;28;20045;-74
2023/09/29 00:52:16;;;;;;;5.15;1.30;;;;;;;;;;5023207;28;20049;-72
2023/09/29 00:54:46;;;;;;;7.03;1.50;;;;;;;;;;5021431;28;20821;-73
2023/09/29 00:57:16;;;;;;;3.03;1.23;;;;;;;;;;5020432;28;20050;-74
2023/09/29 00:59:48;;;;;;;4.85;1.45;;;;;;;;;;5020777;28;20049;-74
2023/09/29 01:02:20;;;;;;;3.65;1.20;;;;;;;;;;5020053;28;20061;-74
2023/09/29 01:04:51;;;;;;;5.57;1.60;;;;;;;;;;5022600;28;20053;-74
2023/09/29 01:07:20;;;;;;;4.63;1.80;;;;;;;;;;5022769;28;20543;-73
2023/09/29 01:09:50;;;;;;;5.25;1.52;;;;;;;;;;5021468;28;20057;-73
2023/09/29 01:12:28;;;;;;;3.00;1.55;;;;;;;;;;5019658;28;20060;-73
2023/09/29 01:14:59;;;;;;;6.95;1.80;;;;;;;;;;5021505;28;20714;-73
2023/09/29 01:17:31;;;;;;;6.43;2.00;;;;;;;;;;5023198;28;20045;-73
2023/09/29 01:20:05;;;;;;;3.88;1.70;;;;;;;;;;5022862;28;20049;-73
2023/09/29 01:22:47;;;;;;;4.53;1.80;;;;;;;;;;5021851;28;20045;-76
2023/09/29 01:25:19;;;;;;;5.18;1.70;;;;;;;;;;5021777;28;20053;-73
2023/09/29 01:27:50;;;;;;;5.88;1.90;;;;;;;;;;5022366;28;20056;-73
2023/09/29 01:30:20;;;;;;;3.53;1.80;;;;;;;;;;5021124;28;20049;-73
2023/09/29 01:32:53;;;;;;;5.65;1.90;;;;;;;;;;5022091;28;20045;-73
2023/09/29 01:35:24;;;;;;;4.30;1.67;;;;;;;;;;5022424;28;20420;-73
2023/09/29 01:37:58;;;;;;;7.22;1.92;;;;;;;;;;5021046;28;20401;-74
2023/09/29 01:40:29;;;;;;;4.43;1.80;;;;;;;;;;5020722;28;20060;-73
2023/09/29 01:43:00;;;;;;;6.05;2.03;;;;;;;;;;5022062;28;20037;-73
2023/09/29 01:45:32;;;;;;;6.05;1.90;;;;;;;;;;5021883;28;20049;-73
2023/09/29 01:48:03;;;;;;;3.28;1.92;;;;;;;;;;5022613;28;20046;-73
2023/09/29 01:50:33;;;;;;;3.30;1.70;;;;;;;;;;5021896;28;20053;-73
2023/09/29 01:53:03;;;;;;;7.40;2.25;;;;;;;;;;5022128;28;20061;-74
2023/09/29 01:55:34;;;;;;;3.30;1.65;;;;;;;;;;5019967;28;20065;-73
2023/09/29 01:58:05;;;;;;;8.05;2.00;;;;;;;;;;5020154;28;20053;-73
2023/09/29 02:00:35;;;;;;;5.03;2.28;;;;;;;;;;5020263;28;20416;-73
2023/09/29 02:03:07;;;;;;;5.30;2.05;;;;;;;;;;5021218;28;20049;-73
2023/09/29 02:05:38;;;;;;;6.07;3.08;;;;;;;;;;5021620;28;20056;-73
2023/09/29 02:08:10;;;;;;;7.18;1.95;;;;;;;;;;5021925;28;20508;-73
2023/09/29 02:10:41;;;;;;;5.88;2.20;;;;;;;;;;5020357;28;20416;-73
2023/09/29 02:13:12;;;;;;;6.07;1.70;;;;;;;;;;5021553;28;20111;-73
2023/09/29 02:15:42;;;;;;;8.60;2.50;;;;;;;;;;5020794;28;20061;-73
2023/09/29 02:18:13;;;;;;;5.35;1.85;;;;;;;;;;5004611;28;20563;-73
2023/09/29 02:20:46;;;;;;;3.40;1.48;;;;;;;;;;5020398;28;20056;-73
2023/09/29 02:23:17;;;;;;;3.55;1.70;;;;;;;;;;5023906;28;20053;-74
2023/09/29 02:25:48;;;;;;;3.97;1.50;;;;;;;;;;5025307;28;20049;-74
2023/09/29 02:28:20;;;;;;;5.25;1.67;;;;;;;;;;5024347;28;20053;-73
2023/09/29 02:30:50;;;;;;;5.78;2.28;;;;;;;;;;5025294;28;20065;-73
2023/09/29 02:33:20;;;;;;;4.75;1.35;;;;;;;;;;5025534;28;20037;-73
2023/09/29 02:35:54;;;;;;;4.03;1.60;;;;;;;;;;5025702;28;20049;-73
2023/09/29 02:38:27;;;;;;;6.00;1.60;;;;;;;;;;5025623;28;20056;-73
2023/09/29 02:40:59;;;;;;;5.40;1.90;;;;;;;;;;5025656;28;20432;-73
2023/09/29 02:43:30;;;;;;;5.32;1.45;;;;;;;;;;5025656;28;20065;-73
2023/09/29 02:46:00;;;;;;;3.38;1.55;;;;;;;;;;5025779;28;20497;-73
2023/09/29 02:48:32;;;;;;;4.32;1.63;;;;;;;;;;5025352;28;20056;-73
2023/09/29 02:51:02;;;;;;;6.57;1.58;;;;;;;;;;5023831;28;20061;-74
2023/09/29 02:53:34;;;;;;;3.33;1.50;;;;;;;;;;5025014;28;20053;-73
2023/09/29 02:56:05;;;;;;;6.18;1.45;;;;;;;;;;5025173;28;20033;-73
2023/09/29 02:58:36;;;;;;;4.05;1.30;;;;;;;;;;5025061;28;20432;-73
2023/09/29 03:01:11;;;;;;;4.80;1.30;;;;;;;;;;5023905;28;20053;-73
2023/09/29 03:03:46;;;;;;;5.07;1.63;;;;;;;;;;5024962;28;20049;-74
2023/09/29 03:06:20;;;;;;;6.28;1.48;;;;;;;;;;5024837;28;20054;-72
2023/09/29 03:08:54;;;;;;;3.67;1.40;;;;;;;;;;5024485;28;20535;-73
2023/09/29 03:11:25;;;;;;;4.55;1.30;;;;;;;;;;5025271;28;20074;-74
2023/09/29 03:13:56;;;;;;;7.82;1.30;;;;;;;;;;5025170;28;20065;-73
2023/09/29 03:16:27;;;;;;;3.72;1.23;;;;;;;;;;5024599;28;20057;-73
2023/09/29 03:19:00;;;;;;;4.35;1.50;;;;;;;;;;5022719;28;20535;-73
2023/09/29 03:21:32;;;;;;;3.10;1.10;;;;;;;;;;5024291;28;20045;-73
2023/09/29 03:24:03;;;;;;;4.38;1.27;;;;;;;;;;5023783;28;20068;-73
2023/09/29 03:26:34;;;;;;;3.55;1.23;;;;;;;;;;5024610;28;20053;-73
2023/09/29 03:29:05;;;;;;;5.97;1.20;;;;;;;;;;5024600;28;20360;-73
2023/09/29 03:31:36;;;;;;;2.10;0.93;;;;;;;;;;5024724;28;20607;-73
2023/09/29 03:34:07;;;;;;;2.72;0.98;;;;;;;;;;5022859;28;20053;-72
2023/09/29 03:36:37;;;;;;;5.40;1.15;;;;;;;;;;5024566;28;20693;-73
2023/09/29 03:39:09;;;;;;;2.78;1.00;;;;;;;;;;5024239;28;20061;-73
2023/09/29 03:41:40;;;;;;;6.32;0.93;;;;;;;;;;5024411;28;20620;-72
2023/09/29 03:44:12;;;;;;;4.25;1.00;;;;;;;;;;5025094;28;20053;-73
2023/09/29 03:46:44;;;;;;;3.65;1.00;;;;;;;;;;5024566;28;20053;-73
2023/09/29 03:49:14;;;;;;;2.65;0.88;;;;;;;;;;5024216;28;20053;-72
2023/09/29 03:51:45;;;;;;;2.22;0.90;;;;;;;;;;5023447;28;20053;-73
2023/09/29 03:54:15;;;;;;;2.13;0.70;;;;;;;;;;5024215;28;20076;-72
2023/09/29 03:56:47;;;;;;;3.92;0.90;;;;;;;;;;5024194;28;20045;-73
2023/09/29 03:59:18;;;;;;;3.38;0.93;;;;;;;;;;5022610;28;20500;-72
2023/09/29 04:01:48;;;;;;;5.30;0.95;;;;;;;;;;5023468;28;20058;-73
2023/09/29 04:04:18;;;;;;;2.65;1.00;;;;;;;;;;5023760;28;20535;-73
2023/09/29 04:06:49;;;;;;;2.92;0.80;;;;;;;;;;5024196;28;20527;-72
2023/09/29 04:09:20;;;;;;;5.15;0.85;;;;;;;;;;5023243;28;20045;-73
2023/09/29 04:11:51;;;;;;;2.80;0.90;;;;;;;;;;5023246;28;20049;-72
2023/09/29 04:14:21;;;;;;;3.05;0.63;;;;;;;;;;5023856;28;20432;-73
2023/09/29 04:17:04;;;;;;;3.78;0.85;;;;;;;;;;5024142;28;20049;-73
2023/09/29 04:19:35;;;;;;;3.40;0.93;;;;;;;;;;5023614;28;20054;-73
2023/09/29 04:22:05;;;;;;;2.15;0.68;;;;;;;;;;5024413;28;20069;-73
2023/09/29 04:24:36;;;;;;;7.32;0.82;;;;;;;;;;5023385;28;20065;-73
2023/09/29 04:27:07;;;;;;;2.33;0.65;;;;;;;;;;5023324;28;20048;-73
2023/09/29 04:29:37;;;;;;;4.20;0.63;;;;;;;;;;5022743;28;20080;-73
2023/09/29 04:32:08;;;;;;;1.65;0.50;;;;;;;;;;5022755;28;20057;-73
2023/09/29 04:34:37;;;;;;;4.65;0.80;;;;;;;;;;5024010;28;20053;-74
2023/09/29 04:37:09;;;;;;;1.67;0.60;;;;;;;;;;5023619;28;20053;-73
2023/09/29 04:39:39;;;;;;;4.43;0.77;;;;;;;;;;5023938;28;20080;-76
2023/09/29 04:42:10;;;;;;;1.80;0.47;;;;;;;;;;5023101;28;20045;-74
2023/09/29 04:44:40;;;;;;;3.35;1.08;;;;;;;;;;5022606;28;20068;-73
2023/09/29 04:47:11;;;;;;;2.05;0.70;;;;;;;;;;5020957;28;20527;-73
2023/09/29 04:49:42;;;;;;;4.65;1.00;;;;;;;;;;5023237;28;20053;-73
2023/09/29 04:52:12;;;;;;;6.97;0.80;;;;;;;;;;5022957;28;20416;-72
2023/09/29 04:54:43;;;;;;;2.75;0.85;;;;;;;;;;5022930;28;20053;-72
2023/09/29 04:57:15;;;;;;;3.88;1.08;;;;;;;;;;5022571;28;20057;-72
2023/09/29 04:59:46;;;;;;;3.75;1.13;;;;;;;;;;5023113;28;20057;-73
2023/09/29 05:02:16;;;;;;;9.73;0.85;;;;;;;;;;5022793;28;20448;-73
2023/09/29 05:04:46;;;;;;;2.97;0.98;;;;;;;;;;5022713;28;20076;-72
2023/09/29 05:07:18;;;;;;;2.08;0.80;;;;;;;;;;5022960;28;20049;-72
2023/09/29 05:09:49;;;;;;;3.13;0.90;;;;;;;;;;5022564;28;20050;-72
2023/09/29 05:12:19;;;;;;;3.70;0.90;;;;;;;;;;5023206;28;20056;-72
2023/09/29 05:14:50;;;;;;;3.60;0.93;;;;;;;;;;5023075;28;20050;-73
2023/09/29 05:17:20;;;;;;;2.63;0.90;;;;;;;;;;5022008;28;20057;-73
2023/09/29 05:19:52;;;;;;;3.80;1.10;;;;;;;;;;5022638;28;20052;-73
2023/09/29 05:22:22;;;;;;;2.83;0.90;;;;;;;;;;5022571;28;20060;-72
2023/09/29 05:24:55;;;;;;;4.60;0.85;;;;;;;;;;5022363;28;20057;-72
2023/09/29 05:27:31;;;;;;;4.13;1.05;;;;;;;;;;5022171;28;20076;-72
2023/09/29 05:30:04;;;;;;;2.33;0.90;;;;;;;;;;5020876;28;20516;-72
2023/09/29 05:32:34;;;;;;;2.58;0.90;;;;;;;;;;5021215;28;20076;-73
2023/09/29 05:35:05;;;;;;;4.85;1.10;;;;;;;;;;5022246;28;20064;-72
2023/09/29 05:37:37;;;;;;;4.82;1.00;;;;;;;;;;5022733;28;20053;-72
2023/09/29 05:40:08;;;;;;;3.10;1.00;;;;;;;;;;5022765;28;20412;-72
2023/09/29 05:42:39;;;;;;;1.88;0.80;;;;;;;;;;5022196;28;20045;-73
2023/09/29 05:45:20;;;;;;;2.90;1.10;;;;;;;;;;5021951;28;20076;-72
2023/09/29 05:47:51;;;;;;;4.32;1.00;;;;;;;;;;5022769;28;20060;-73
2023/09/29 05:50:23;;;;;;;2.50;0.98;;;;;;;;;;5021754;28;20080;-72
2023/09/29 05:52:56;;;;;;;10.95;1.55;;;;;;;;;;5021422;28;20053;-73
2023/09/29 05:55:39;;;;;;;5.15;0.90;;;;;;;;;;5022387;28;20060;-72
2023/09/29 05:58:10;;;;;;;5.53;1.30;;;;;;;;;;5021733;28;20076;-73
2023/09/29 06:00:41;;;;;;;5.50;1.77;;;;;;;;;;5021812;28;20060;-73
2023/09/29 06:03:11;;;;;;;3.90;1.23;;;;;;;;;;5022143;28;20513;-73
2023/09/29 06:05:42;;;;;;;4.50;1.20;;;;;;;;;;5022216;28;20076;-72
2023/09/29 06:08:13;;;;;;;3.40;1.50;;;;;;;;;;5021386;28;20803;-75
2023/09/29 06:10:44;;;;;;;3.30;1.30;;;;;;;;;;5022554;28;20045;-73
2023/09/29 06:13:15;;;;;;;3.40;1.25;;;;;;;;;;5022076;28;20156;-73
2023/09/29 06:15:45;;;;;;;3.65;1.30;;;;;;;;;;5021981;28;20072;-73
2023/09/29 06:18:15;;;;;;;2.25;1.25;;;;;;;;;;5022092;28;20064;-72
2023/09/29 06:20:46;;;;;;;4.05;1.73;;;;;;;;;;5020883;28;20046;-72
2023/09/29 06:23:17;;;;;;;2.50;1.20;;;;;;;;;;5022063;28;20176;-72
2023/09/29 06:25:47;;;;;;;4.97;1.90;;;;;;;;;;5021740;28;20053;-72
2023/09/29 06:28:17;;;;;;;6.60;1.45;;;;;;;;;;5021650;28;20054;-73
2023/09/29 06:30:48;;;;;;;4.28;1.58;;;;;;;;;;5021360;28;20053;-72
2023/09/29 06:33:19;;;;;;;3.05;1.15;;;;;;;;;;5021805;28;20046;-72
2023/09/29 06:35:49;;;;;;;6.53;1.30;;;;;;;;;;5022197;28;20053;-73
2023/09/29 06:38:20;;;;;;;3.35;1.35;;;;;;;;;;5022159;28;20420;-72
2023/09/29 06:40:51;;;;;;;3.95;1.48;;;;;;;;;;5021945;28;20058;-73
2023/09/29 06:43:22;;;;;;;4.22;1.35;;;;;;;;;;5021419;28;20069;-72
2023/09/29 06:45:52;;;;;;;3.75;1.60;;;;;;;;;;5021295;28;20048;-72
2023/09/29 06:48:29;;;;;;;1.83;1.30;;;;;;;;;;5021506;28;20046;-73
2023/09/29 06:51:00;;;;;;;2.42;1.10;;;;;;;;;;5021526;28;20052;-72
2023/09/29 06:53:31;;;;;;;5.15;1.30;;;;;;;;;;5021782;28;20054;-72
2023/09/29 06:56:02;;;;;;;3.03;1.42;;;;;;;;;;5021045;28;20045;-72
2023/09/29 06:58:32;;;;;;;2.47;1.40;;;;;;;;;;5021469;28;20062;-72
2023/09/29 07:01:02;;;;;;;5.68;1.40;;;;;;;;;;5021800;28;20517;-72
2023/09/29 07:03:36;;;;;;;3.17;1.30;;;;;;;;;;5021195;28;20065;-72
2023/09/29 07:06:07;;;;;;;4.03;1.40;;;;;;;;;;5021731;28;20066;-72
2023/09/29 07:08:37;;;;;;;3.63;1.60;;;;;;;;;;5022292;28;20049;-72
2023/09/29 07:11:08;;;;;;;3.63;1.67;;;;;;;;;;5025292;28;20057;-73
2023/09/29 07:13:39;;;;;;;2.50;1.58;;;;;;;;;;5025416;28;20056;-72
2023/09/29 07:16:09;;;;;;;3.20;1.45;;;;;;;;;;5024592;28;20046;-72
2023/09/29 07:18:41;;;;;;;5.55;1.73;;;;;;;;;;5025023;28;20875;-72
2023/09/29 07:21:11;;;;;;;3.75;1.52;;;;;;;;;;5024068;28;20061;-72
2023/09/29 07:23:41;;;;;;;2.17;1.38;;;;;;;;;;5025049;28;20432;-72
2023/09/29 07:26:12;;;;;;;5.65;1.77;;;;;;;;;;5024677;28;20049;-73
2023/09/29 07:28:42;;;;;;;3.88;1.60;;;;;;;;;;5024253;28;20053;-72
2023/09/29 07:31:14;;;;;;;3.95;1.70;;;;;;;;;;5024449;28;20061;-72
2023/09/29 07:33:45;;;;;;;4.68;1.65;;;;;;;;;;5024511;28;20227;-72
2023/09/29 07:36:15;;;;;;;3.70;1.58;;;;;;;;;;5024349;28;20072;-72
2023/09/29 07:38:45;;;;;;;4.90;1.90;;;;;;;;;;5025090;28;20525;-72
2023/09/29 07:41:17;;;;;;;3.47;1.50;;;;;;;;;;5024414;28;20528;-73
2023/09/29 07:43:48;;;;;;;3.33;1.88;;;;;;;;;;5024086;28;20049;-72
2023/09/29 07:46:18;;;;;;;3.42;1.85;;;;;;;;;;5024245;28;20050;-72
2023/09/29 07:48:49;;;;;;;3.35;1.65;;;;;;;;;;5025081;28;20060;-72
2023/09/29 07:51:19;;;;;;;4.60;1.60;;;;;;;;;;5024253;28;20053;-72
2023/09/29 07:53:51;;;;;;;2.95;2.00;;;;;;;;;;5024106;28;20485;-72
2023/09/29 07:56:21;;;;;;;3.63;2.10;;;;;;;;;;5023695;28;20397;-72
2023/09/29 07:58:52;;;;;;;2.25;1.73;;;;;;;;;;5024653;28;20072;-72
2023/09/29 08:01:23;;;;;;;2.25;1.33;;;;;;;;;;5023838;28;20049;-72
2023/09/29 08:03:53;;;;;;;3.80;1.83;;;;;;;;;;5023593;28;20041;-72
2023/09/29 08:06:24;;;;;;;3.45;1.85;;;;;;;;;;5023910;28;20064;-72
2023/09/29 08:08:55;;;;;;;3.75;1.73;;;;;;;;;;5023576;28;20531;-72
2023/09/29 08:11:26;;;;;;;3.38;1.58;;;;;;;;;;5023899;28;20061;-72
2023/09/29 08:13:57;;;;;;;4.00;1.75;;;;;;;;;;5023748;28;20052;-72
2023/09/29 08:16:27;;;;;;;4.57;1.75;;;;;;;;;;5023413;28;20459;-72
2023/09/29 08:18:57;;;;;;;4.05;1.85;;;;;;;;;;5024168;28;20061;-72
2023/09/29 08:21:28;;;;;;;4.05;2.03;;;;;;;;;;5023167;28;20072;-72
2023/09/29 08:24:08;;;;;;;7.85;2.20;;;;;;;;;;5023642;28;20417;-72
2023/09/29 08:26:38;;;;;;;5.07;1.65;;;;;;;;;;5023638;28;20547;-73
2023/09/29 08:29:15;;;;;;;3.72;2.13;;;;;;;;;;5024153;28;20069;-72
2023/09/29 08:31:46;;;;;;;4.35;2.20;;;;;;;;;;5023835;28;20069;-72
2023/09/29 08:34:18;;;;;;;4.75;2.08;;;;;;;;;;5023743;28;20489;-72
2023/09/29 08:36:48;;;;;;;7.35;2.05;;;;;;;;;;5022610;28;20037;-72
2023/09/29 08:39:19;;;;;;;4.00;1.98;;;;;;;;;;5023128;28;20056;-72
2023/09/29 08:42:09;;;;;;;6.75;1.90;;;;;;;;;;5022668;28;20060;-72
2023/09/29 08:44:43;;;;;;;5.70;2.47;;;;;;;;;;5022931;28;20053;-72
2023/09/29 08:47:19;;;;;;;4.32;1.98;;;;;;;;;;5023071;28;20056;-72
2023/09/29 08:49:49;;;;;;;;;;;;;;;;;;5023405;28;20587;-73
2023/09/29 08:52:19;;;;;;;3.28;1.90;;;;;;;;;;5022933;28;20319;-72
2023/09/29 08:54:50;;;;;;;4.25;1.83;;;;;;;;;;5022828;28;20049;-72
2023/09/29 08:57:21;;;;;;;6.07;2.10;;;;;;;;;;5023115;28;20057;-73
2023/09/29 08:59:54;;;;;;;5.43;2.13;;;;;;;;;;5023239;28;20532;-72
2023/09/29 09:02:24;;;;;;;6.50;2.28;;;;;;;;;;5022975;28;20080;-74
2023/09/29 09:04:56;;;;;;;3.88;2.22;;;;;;;;;;5023901;28;20512;-72
2023/09/29 09:07:27;;;;;;;4.05;2.20;;;;;;;;;;5023397;28;20052;-73
2023/09/29 09:09:58;;;;;;;4.35;2.40;;;;;;;;;;5022408;28;20064;-72
2023/09/29 09:12:36;;;;;;;5.03;2.15;;;;;;;;;;5022698;28;20505;-72
2023/09/29 09:15:08;;;;;;;4.93;2.15;;;;;;;;;;5021860;28;20073;-72
2023/09/29 09:17:40;;;;;;;4.55;2.15;;;;;;;;;;5022175;28;20056;-72
2023/09/29 09:20:11;;;;;;;5.45;2.30;;;;;;;;;;5022611;28;20067;-72
2023/09/29 09:22:42;;;;;;;3.72;2.42;;;;;;;;;;5022588;28;20614;-72
2023/09/29 09:25:17;;;;;;;5.93;2.13;;;;;;;;;;5021601;28;20064;-73
2023/09/29 09:27:52;;;;;;;6.47;2.15;;;;;;;;;;5021772;28;20061;-72
2023/09/29 09:30:35;;;;;;;5.75;2.67;;;;;;;;;;5022181;28;20508;-73
2023/09/29 09:33:06;;;;;;;5.13;2.53;;;;;;;;;;5021429;28;20049;-73
2023/09/29 09:35:37;;;;;;;7.65;3.63;;;;;;;;;;5022410;28;20041;-72
2023/09/29 09:38:09;;;;;;;5.78;2.42;;;;;;;;;;5023283;28;20056;-79
2023/09/29 09:40:42;;;;;;;7.15;2.70;;;;;;;;;;5023141;28;20064;-72
2023/09/29 09:43:14;;;;;;;5.10;2.45;;;;;;;;;;5021729;28;20053;-73
2023/09/29 09:45:44;;;;;;;7.57;3.42;;;;;;;;;;5022446;28;20057;-73
2023/09/29 09:48:20;;;;;;;8.82;4.20;;;;;;;;;;5022179;28;20041;-73
2023/09/29 09:50:54;;;;;;;5.88;3.25;;;;;;;;;;5022278;28;20057;-73
2023/09/29 09:53:31;;;;;;;8.95;2.92;;;;;;;;;;5022454;28;20622;-73
2023/09/29 09:56:20;;;;;;;8.52;3.33;;;;;;;;;;5022181;28;20049;-74
2023/09/29 09:58:52;;;;;;;8.25;3.28;;;;;;;;;;5023019;28;20057;-74
2023/09/29 10:01:23;;;;;;;10.13;3.72;;;;;;;;;;5021594;28;20057;-74
2023/09/29 10:03:56;;;;;;;9.60;3.25;;;;;;;;;;5021269;28;20064;-73
2023/09/29 10:06:29;;;;;;;7.38;2.97;;;;;;;;;;5022318;28;20042;-74
2023/09/29 10:09:01;;;;;;;13.40;3.22;;;;;;;;;;5022008;28;20054;-73
2023/09/29 10:11:34;;;;;;;5.22;2.92;;;;;;;;;;5022280;28;20050;-73
2023/09/29 10:14:07;;;;;;;5.55;3.03;;;;;;;;;;5022064;28;20038;-73
2023/09/29 10:16:40;;;;;;;8.55;3.20;;;;;;;;;;5021871;28;20139;-73
2023/09/29 10:19:12;;;;;;;8.95;3.55;;;;;;;;;;5023053;28;20619;-76
2023/09/29 10:21:49;;;;;;;6.88;3.22;;;;;;;;;;5021427;28;20057;-73
2023/09/29 10:24:27;;;;;;;6.13;3.00;;;;;;;;;;5022329;28;20053;-73
2023/09/29 10:26:59;;;;;;;5.80;2.92;;;;;;;;;;5021729;28;20072;-73
2023/09/29 10:29:34;;;;;;;6.00;3.22;;;;;;;;;;5021647;28;20065;-73
2023/09/29 10:32:15;;;;;;;10.63;3.35;;;;;;;;;;5021605;28;20057;-73
2023/09/29 10:34:46;;;;;;;5.47;3.20;;;;;;;;;;5021790;28;20065;-73
2023/09/29 10:37:16;;;;;;;16.58;8.65;;;;;;;;;;5021521;28;20774;-73
2023/09/29 10:39:48;;;;;;;7.25;3.30;;;;;;;;;;5021619;28;20045;-73
2023/09/29 10:42:22;;;;;;;7.05;3.38;;;;;;;;;;5021578;28;20056;-73
2023/09/29 10:44:55;;;;;;;6.22;3.58;;;;;;;;;;5025807;28;20052;-72
2023/09/29 10:47:34;;;;;;;6.53;2.97;;;;;;;;;;5025559;28;20068;-72
2023/09/29 10:50:06;;;;;;;6.40;2.70;;;;;;;;;;5024397;28;20065;-76
2023/09/29 10:52:39;;;;;;;7.10;2.90;;;;;;;;;;5024891;28;20042;-73
2023/09/29 10:55:13;;;;;;;5.25;2.67;;;;;;;;;;5025672;28;20060;-72
2023/09/29 10:57:47;;;;;;;4.10;2.75;;;;;;;;;;5024736;28;20065;-75
2023/09/29 11:00:18;;;;;;;9.20;3.60;;;;;;;;;;5025941;28;20860;-77
2023/09/29 11:02:49;;;;;;;7.53;2.88;;;;;;;;;;5024541;28;20064;-73
2023/09/29 11:05:20;;;;;;;9.00;3.13;;;;;;;;;;5025631;28;20773;-76
2023/09/29 11:07:52;;;;;;;6.30;3.10;;;;;;;;;;5025240;28;20052;-73
2023/09/29 11:10:22;;;;;;;3.83;2.70;;;;;;;;;;5024252;28;20068;-73
2023/09/29 11:12:53;;;;;;;13.80;2.88;;;;;;;;;;5024659;28;20066;-73
2023/09/29 11:15:26;;;;;;;4.75;2.67;;;;;;;;;;5024585;28;20417;-73
2023/09/29 11:17:56;;;;;;;4.90;2.45;;;;;;;;;;5039813;28;20127;-73
2023/09/29 11:20:27;;;;;;;4.43;2.25;;;;;;;;;;5043633;28;20045;-73
2023/09/29 11:23:11;;;;;;;3.28;2.15;;;;;;;;;;5045052;28;20049;-74
2023/09/29 11:25:50;;;;;;;6.93;3.00;;;;;;;;;;5044356;28;20060;-73
2023/09/29 11:28:21;;;;;;;6.03;2.58;;;;;;;;;;5044089;28;20436;-73
2023/09/29 11:30:51;;;;;;;4.03;1.83;;;;;;;;;;5043424;28;20052;-72
2023/09/29 11:33:22;;;;;;;5.00;2.08;;;;;;;;;;5044763;28;20044;-74
2023/09/29 11:35:55;;;;;;;3.10;1.75;;;;;;;;;;5045089;28;20041;-74
2023/09/29 11:38:34;;;;;;;3.85;2.10;;;;;;;;;;5043003;28;20056;-73
2023/09/29 11:41:07;;;;;;;3.88;2.42;;;;;;;;;;5043576;28;20424;-74
2023/09/29 11:43:40;;;;;;;2.63;1.60;;;;;;;;;;5042775;28;20527;-74
2023/09/29 11:46:14;;;;;;;2.60;1.77;;;;;;;;;;5041345;28;20539;-74
2023/09/29 11:48:45;;;;;;;4.82;2.25;;;;;;;;;;5043256;28;20056;-73
2023/09/29 11:51:15;;;;;;;4.45;1.60;;;;;;;;;;5043539;28;20492;-75
2023/09/29 11:53:48;;;;;;;2.65;2.00;;;;;;;;;;5043298;28;20061;-74
2023/09/29 11:56:20;;;;;;;2.88;1.80;;;;;;;;;;5043977;28;20053;-78
2023/09/29 11:58:51;;;;;;;4.30;1.30;;;;;;;;;;5043694;28;20068;-74
2023/09/29 12:01:21;;;;;;;14.77;2.05;;;;;;;;;;5043061;28;20091;-74
2023/09/29 12:03:52;;;;;;;3.22;1.70;;;;;;;;;;5043756;28;20399;-74
2023/09/29 12:06:24;;;;;;;2.10;1.10;;;;;;;;;;5043677;28;20103;-74
2023/09/29 12:08:55;;;;;;;3.17;2.08;;;;;;;;;;5043634;28;20057;-74
2023/09/29 12:11:25;;;;;;;1.42;1.05;;;;;;;;;;5043910;28;20041;-74
2023/09/29 12:13:55;;;;;;;3.03;1.10;;;;;;;;;;5043507;28;20084;-73
2023/09/29 12:16:26;;;;;;;2.95;1.40;;;;;;;;;;5043276;28;20064;-75
2023/09/29 12:18:57;;;;;;;1.23;1.10;;;;;;;;;;5043316;28;20052;-79
2023/09/29 12:21:27;;;;;;;5.00;0.80;;;;;;;;;;5043146;28;20061;-75
2023/09/29 12:23:57;;;;;;;2.05;1.10;;;;;;;;;;5043241;28;20048;-74
2023/09/29 12:26:28;;;;;;;2.03;1.00;;;;;;;;;;5043268;28;20515;-74
2023/09/29 12:29:00;;;;;;;2.97;0.80;;;;;;;;;;5042674;28;20057;-75
2023/09/29 12:31:31;;;;;;;4.68;3.50;;;;;;;;;;5042114;28;20367;-76
2023/09/29 12:34:04;;;;;;;2.85;1.17;;;;;;;;;;5043853;28;20064;-75
2023/09/29 12:36:34;;;;;;;1.77;0.88;;;;;;;;;;5043704;28;20420;-75
2023/09/29 12:39:05;;;;;;;1.63;0.60;;;;;;;;;;5042980;28;20504;-75
2023/09/29 12:41:37;;;;;;;1.80;0.70;;;;;;;;;;5042776;28;20381;-74
2023/09/29 12:44:09;;;;;;;1.67;0.63;;;;;;;;;;5043016;28;20854;-75
2023/09/29 12:46:39;;;;;;;3.30;0.50;;;;;;;;;;5043313;28;20617;-76
2023/09/29 12:49:10;;;;;;;2.13;0.50;;;;;;;;;;5043296;28;20547;-75
2023/09/29 12:51:42;;;;;;;3.33;0.70;;;;;;;;;;5042956;28;20081;-74
2023/09/29 12:54:28;;;;;;;1.10;0.70;;;;;;;;;;5042259;28;20063;-81
2023/09/29 12:56:58;;;;;;;1.63;0.82;;;;;;;;;;5043295;28;20059;-75
2023/09/29 12:59:38;;;;;;;0.73;0.57;;;;;;;;;;5042802;28;20044;-75
2023/09/29 13:02:09;;;;;;;1.48;0.70;;;;;;;;;;5043600;28;20125;-75
2023/09/29 13:04:41;;;;;;;2.47;0.70;;;;;;;;;;5042872;28;20527;-75
2023/09/29 13:07:12;;;;;;;0.80;0.50;;;;;;;;;;5042187;28;20053;-75
2023/09/29 13:09:42;;;;;;;3.42;0.52;;;;;;;;;;5042123;28;20459;-75
2023/09/29 13:12:16;;;;;;;2.83;0.70;;;;;;;;;;5042085;28;20424;-75
2023/09/29 13:14:59;;;;;;;0.80;0.60;;;;;;;;;;5041961;28;20052;-75
2023/09/29 13:17:29;;;;;;;1.00;0.77;;;;;;;;;;5042411;28;20073;-75
2023/09/29 13:20:00;;;;;;;1.58;1.25;;;;;;;;;;5042022;28;20386;-75
2023/09/29 13:22:32;;;;;;;1.83;0.60;;;;;;;;;;5039819;28;20057;-76
2023/09/29 13:25:04;;;;;;;1.35;0.73;;;;;;;;;;5042158;28;20071;-75
2023/09/29 13:27:34;;;;;;;5.78;2.25;;;;;;;;;;5043507;28;20048;-75
2023/09/29 13:30:05;;;;;;;1.05;0.50;;;;;;;;;;5043090;28;20057;-75
2023/09/29 13:32:36;;;;;;;1.00;0.77;;;;;;;;;;5041156;28;20507;-75
2023/09/29 13:35:08;;;;;;;1.10;0.60;;;;;;;;;;5041950;28;20444;-75
2023/09/29 13:37:41;;;;;;;0.90;0.55;;;;;;;;;;5041907;28;20048;-75
2023/09/29 13:40:12;;;;;;;1.10;0.93;;;;;;;;;;5042065;28;20629;-75
2023/09/29 13:42:44;;;;;;;2.08;0.85;;;;;;;;;;5042230;28;20064;-75
2023/09/29 13:45:17;;;;;;;1.05;0.63;;;;;;;;;;5041352;28;20062;-75
2023/09/29 13:47:47;;;;;;;0.98;0.60;;;;;;;;;;5041965;28;20416;-81
2023/09/29 13:50:18;;;;;;;1.30;0.57;;;;;;;;;;5041396;28;20049;-75
2023/09/29 13:52:49;;;;;;;1.40;0.73;;;;;;;;;;5041242;28;20060;-76
2023/09/29 13:55:19;;;;;;;3.40;0.80;;;;;;;;;;5041863;28;20052;-74
2023/09/29 13:57:49;;;;;;;2.33;0.80;;;;;;;;;;5042213;28;20048;-75
2023/09/29 14:00:21;;;;;;;1.48;0.68;;;;;;;;;;5042493;28;20055;-78
2023/09/29 14:02:53;;;;;;;6.72;1.48;;;;;;;;;;5041921;28;20051;-75
2023/09/29 14:05:24;;;;;;;1.50;0.93;;;;;;;;;;5041809;28;20133;-74
2023/09/29 14:07:56;;;;;;;2.13;1.10;;;;;;;;;;5041697;28;20393;-76
2023/09/29 14:10:26;;;;;;;1.33;1.05;;;;;;;;;;5041133;28;20071;-75
2023/09/29 14:12:58;;;;;;;6.55;1.25;;;;;;;;;;5041169;28;20504;-75
2023/09/29 14:15:33;;;;;;;6.45;1.17;;;;;;;;;;5041298;28;20068;-77
2023/09/29 14:18:04;;;;;;;;;;;;;;;;;;5043402;28;20055;-76
2023/09/29 14:20:35;;;;;;;3.72;0.75;;;;;;;;;;5045155;28;20284;-75
2023/09/29 14:23:09;;;;;;;4.60;1.10;;;;;;;;;;5044951;28;20048;-75
2023/09/29 14:25:40;;;;;;;4.50;1.20;;;;;;;;;;5045992;28;20416;-75
2023/09/29 14:28:10;;;;;;;1.60;1.20;;;;;;;;;;5046009;28;20507;-75
2023/09/29 14:30:41;;;;;;;2.58;0.88;;;;;;;;;;5045244;28;20049;-74
2023/09/29 14:33:11;;;;;;;2.60;1.00;;;;;;;;;;5045031;28;20047;-75
2023/09/29 14:35:42;;;;;;;1.85;0.95;;;;;;;;;;5045487;28;20046;-77
2023/09/29 14:38:17;;;;;;;3.85;1.30;;;;;;;;;;5044971;28;20075;-76
2023/09/29 14:40:47;;;;;;;2.80;1.08;;;;;;;;;;5046068;28;20056;-75
2023/09/29 14:43:18;;;;;;;4.63;1.67;;;;;;;;;;5045934;28;20062;-75
2023/09/29 14:45:50;;;;;;;1.33;1.05;;;;;;;;;;5045912;28;21228;-75
2023/09/29 14:48:21;;;;;;;3.92;1.10;;;;;;;;;;5044542;28;20082;-76
2023/09/29 14:50:51;;;;;;;9.10;1.73;;;;;;;;;;5044292;28;20053;-77
2023/09/29 14:53:22;;;;;;;8.05;1.55;;;;;;;;;;5045034;28;20500;-76
2023/09/29 14:55:53;;;;;;;3.00;2.28;;;;;;;;;;5045099;28;20056;-75
2023/09/29 14:58:24;;;;;;;1.38;0.82;;;;;;;;;;5044790;28;20823;-75
2023/09/29 15:00:54;;;;;;;5.20;1.00;;;;;;;;;;5044454;28;20064;-75
2023/09/29 15:03:25;;;;;;;2.78;1.20;;;;;;;;;;5044647;28;20575;-74
2023/09/29 15:06:04;;;;;;;3.05;1.25;;;;;;;;;;5042881;28;20056;-76
2023/09/29 15:08:39;;;;;;;3.22;1.38;;;;;;;;;;5044902;28;20049;-75
2023/09/29 15:11:10;;;;;;;2.78;1.48;;;;;;;;;;5044859;28;20049;-75